Hovedside
METAR-TAF:

METAR-TAF

Lufthavner :

Luleå lufthavn

Luleå, Sverige

breddegrad: 65-33N, lengdegrad: 022-08E, høyde over havet: 17 m

Gjeldene værobservasjon

Denne rapporten ble laget for 25 minutter siden, klokken 14:50 UTC
Vind 9 kt fra Sør-sørvest
Temperatur 15°C
Luftfuktighet 77%
Trykk 1012 hPa
Sikt 10 km eller mer

METAR: ESPA 241450Z AUTO 20009KT 9999 OVC049/// 15/11 Q1012

Tid: 17:15 (15:15 UTC)

Varsel

Denne rapporten ble laget for 3 timer og 45 minutter siden, klokken 11:30 UTC
Varsel gyldig fra 24. klokken 12 UTC til 24. klokken 15 UTC
Vind 8 kt fra Sør
Sikt 10 km eller mer
ingen skyer under 1500 m og ingen bygeskyer

TAF: ESPA 241130Z 2412/2415 18008KT CAVOK

Værobservasjoner og værvarsel for over 4000 flyplasser (METAR- og TAF-rapporter).

Tilgjengelige stasjoner er representert av de røde og gule prikkene på kartet.

Hold musepekeren over prikken for å se navnet på stasjonen.

Klikk så for å se værobservasjoner og -varsler.

For å forandre kartet kan du klikke på den grønne knappen med svart kryss for å zoome inn, på den grønne knappen med strek for å zoome ut, eller på de grønne pilene for å se tilstøtende kart.


METAR-TAF: